Time;durP1;ratioP1;P1;durP2;ratioP2;P2;SDS_P1;SDS_P2;PMS_P1;PMS_P2;Temp;Humidity;BMP_temperature;BMP_pressure;BME280_temperature;BME280_humidity;BME280_pressure;Samples;Min_cycle;Max_cycle;Signal;HPM_P1;HPM_P2
2022/03/13 00:00:51;;;;;;;15.73;9.85;;;;;;;0.05;46.51;102573.16;2089390;28;20183;-63
2022/03/13 00:01:52;;;;;;;14.07;9.30;;;;;;;1.15;46.85;102744.63;2089028;28;20274;-63
2022/03/13 00:02:55;;;;;;;14.10;9.63;;;;;;;0.38;47.10;102615.31;2088831;28;20174;-63
2022/03/13 00:03:56;;;;;;;13.82;9.25;;;;;;;1.24;46.55;102744.63;2088729;28;20318;-63
2022/03/13 00:04:57;;;;;;;12.32;9.38;;;;;;;1.06;46.61;102716.47;2089249;28;20590;-63
2022/03/13 00:05:57;;;;;;;14.23;9.57;;;;;;;1.28;46.81;102748.34;2090482;28;20668;-63
2022/03/13 00:06:59;;;;;;;13.57;9.73;;;;;;;1.32;46.00;102739.19;2091049;28;20175;-64
2022/03/13 00:08:00;;;;;;;14.50;10.05;;;;;;;1.33;46.01;102740.78;2090708;28;20233;-63
2022/03/13 00:09:04;;;;;;;14.30;9.57;;;;;;;1.39;46.12;102750.44;2090954;28;20199;-63
2022/03/13 00:10:06;;;;;;;15.15;9.18;;;;;;;1.43;46.33;102742.41;2090684;28;20208;-63
2022/03/13 00:11:14;;;;;;;13.55;9.40;;;;;;;1.06;46.24;102678.25;2090999;28;20206;-63
2022/03/13 00:12:18;;;;;;;12.82;9.23;;;;;;;1.44;46.39;102738.56;2090647;28;20570;-63
2022/03/13 00:13:19;;;;;;;13.70;9.13;;;;;;;1.30;46.68;102718.78;2090670;28;20180;-63
2022/03/13 00:14:24;;;;;;;15.63;9.40;;;;;;;0.37;46.46;102572.00;2090463;28;20179;-63
2022/03/13 00:15:38;;;;;;;13.40;9.55;;;;;;;1.43;46.44;102737.75;2091119;28;20164;-63
2022/03/13 00:16:38;;;;;;;13.90;9.40;;;;;;;1.45;46.53;102737.44;2090789;28;20244;-63
2022/03/13 00:17:39;;;;;;;14.53;9.20;;;;;;;1.42;46.08;102738.88;2090741;28;20184;-63
2022/03/13 00:18:46;;;;;;;12.47;8.80;;;;;;;1.39;45.29;102734.03;2090747;28;20558;-63
2022/03/13 00:19:48;;;;;;;12.73;8.77;;;;;;;1.29;45.09;102731.63;2090656;28;20654;-63
2022/03/13 00:20:50;;;;;;;11.68;8.27;;;;;;;1.26;45.16;102732.28;2090780;28;20202;-63
2022/03/13 00:21:52;;;;;;;14.35;9.15;;;;;;;1.15;45.41;102732.88;2090579;28;20175;-63
2022/03/13 00:22:57;;;;;;;12.57;8.93;;;;;;;0.83;45.82;102689.59;2090286;28;20179;-63
2022/03/13 00:23:58;;;;;;;10.95;8.38;;;;;;;1.16;45.40;102732.56;2090412;28;20188;-63
2022/03/13 00:25:08;;;;;;;14.03;9.77;;;;;;;1.06;45.41;102712.94;2090858;28;20251;-63
2022/03/13 00:26:09;;;;;;;13.68;9.45;;;;;;;1.12;45.76;102726.13;2090603;28;20163;-63
2022/03/13 00:27:10;;;;;;;14.13;8.57;;;;;;;1.14;46.30;102717.63;2090831;28;20187;-64
2022/03/13 00:28:11;;;;;;;14.43;9.82;;;;;;;0.31;46.29;102593.13;2089960;28;20681;-63
2022/03/13 00:29:12;;;;;;;12.00;9.05;;;;;;;1.17;45.52;102725.16;2090176;28;20216;-63
2022/03/13 00:30:13;;;;;;;12.67;9.40;;;;;;;1.18;45.33;102724.06;2090687;28;20176;-63
2022/03/13 00:31:14;;;;;;;12.40;8.88;;;;;;;1.16;45.25;102724.38;2090628;28;20175;-63
2022/03/13 00:32:16;;;;;;;13.50;9.37;;;;;;;1.15;45.36;102724.69;2090358;28;20265;-63
2022/03/13 00:33:16;;;;;;;13.05;8.80;;;;;;;1.02;45.04;102720.16;2090432;28;20602;-64
2022/03/13 00:34:17;;;;;;;12.83;8.80;;;;;;;1.04;45.20;102723.38;2090342;28;20188;-64
2022/03/13 00:35:17;;;;;;;15.37;10.27;;;;;;;1.08;45.52;102722.41;2090703;28;20665;-63
2022/03/13 00:36:19;;;;;;;14.40;9.70;;;;;;;0.86;45.52;102683.50;2089769;28;20273;-63
2022/03/13 00:37:19;;;;;;;16.92;8.90;;;;;;;1.02;45.94;102696.38;2090135;28;20198;-63
2022/03/13 00:38:21;;;;;;;12.97;8.70;;;;;;;-0.11;45.63;102522.91;2090668;28;20183;-63
2022/03/13 00:39:22;;;;;;;12.48;9.10;;;;;;;-0.07;45.97;102532.06;2090607;28;20171;-63
2022/03/13 00:40:23;;;;;;;14.67;9.33;;;;;;;1.20;45.18;102711.69;2090505;28;20679;-64
2022/03/13 00:41:23;;;;;;;13.45;9.35;;;;;;;1.26;45.04;102709.59;2090263;28;20175;-63
2022/03/13 00:42:24;;;;;;;14.53;9.50;;;;;;;1.26;45.12;102715.88;2089741;28;20183;-63
2022/03/13 00:43:27;;;;;;;12.80;8.77;;;;;;;0.34;45.49;102569.88;2090585;28;20649;-63
2022/03/13 00:44:28;;;;;;;14.02;9.93;;;;;;;1.20;44.87;102710.88;2090096;28;20722;-63
2022/03/13 00:45:29;;;;;;;13.83;9.33;;;;;;;1.29;44.99;102714.44;2090572;28;20616;-63
2022/03/13 00:46:29;;;;;;;13.93;9.20;;;;;;;1.21;45.17;102701.56;2090577;28;20183;-63
2022/03/13 00:47:30;;;;;;;13.77;8.33;;;;;;;1.08;44.94;102672.47;2090603;28;20207;-63
2022/03/13 00:48:31;;;;;;;13.47;8.67;;;;;;;1.33;45.06;102712.66;2090588;28;20661;-63
2022/03/13 00:49:32;;;;;;;13.13;8.87;;;;;;;1.32;44.31;102705.59;2090494;28;20677;-63
2022/03/13 00:50:33;;;;;;;10.57;8.20;;;;;;;1.09;44.37;102690.47;2090507;28;20198;-64
2022/03/13 00:51:33;;;;;;;11.33;8.70;;;;;;;1.21;44.32;102687.91;2090266;28;20235;-63
2022/03/13 00:52:34;;;;;;;15.10;8.90;;;;;;;1.36;44.48;102712.03;2089941;28;20207;-63
2022/03/13 00:53:35;;;;;;;13.47;7.93;;;;;;;0.95;44.91;102651.56;2090646;28;20212;-63
2022/03/13 00:54:35;;;;;;;13.47;8.93;;;;;;;0.89;44.54;102639.97;2090128;28;20238;-63
2022/03/13 00:55:36;;;;;;;12.83;7.90;;;;;;;1.25;44.05;102705.25;2090609;28;20176;-63
2022/03/13 00:56:38;;;;;;;14.45;8.98;;;;;;;0.62;44.72;102601.25;2089780;28;20612;-63
2022/03/13 00:57:38;;;;;;;14.43;8.65;;;;;;;1.24;44.79;102692.75;2089732;28;20268;-63
2022/03/13 00:58:40;;;;;;;15.27;8.90;;;;;;;1.32;44.94;102711.88;2090620;28;20183;-63
2022/03/13 00:59:41;;;;;;;13.18;9.05;;;;;;;1.36;44.43;102703.84;2090412;28;20258;-63
2022/03/13 01:00:41;;;;;;;11.80;8.23;;;;;;;0.35;44.66;102566.84;2090487;28;20187;-63
2022/03/13 01:01:42;;;;;;;12.13;8.50;;;;;;;1.25;44.76;102688.88;2089981;28;20608;-63
2022/03/13 01:02:42;;;;;;;12.37;8.57;;;;;;;1.32;44.61;102708.31;2090023;28;20179;-63
2022/03/13 01:03:43;;;;;;;12.23;8.03;;;;;;;1.29;44.85;102704.28;2090029;28;20216;-63
2022/03/13 01:04:44;;;;;;;13.37;8.17;;;;;;;1.27;44.51;102700.28;2090432;28;20657;-63
2022/03/13 01:05:44;;;;;;;11.33;8.40;;;;;;;1.25;44.78;102703.34;2090222;28;20171;-63
2022/03/13 01:06:46;;;;;;;11.33;8.50;;;;;;;0.27;45.11;102553.97;2090390;28;20646;-63
2022/03/13 01:07:46;;;;;;;11.38;7.97;;;;;;;1.07;45.32;102674.41;2090181;28;20186;-63
2022/03/13 01:08:48;;;;;;;12.43;7.97;;;;;;;0.70;45.35;102617.66;2090293;28;20278;-63
2022/03/13 01:09:49;;;;;;;9.68;7.63;;;;;;;1.20;45.37;102697.22;2090245;28;20259;-63
2022/03/13 01:10:50;;;;;;;12.73;8.37;;;;;;;1.18;45.47;102683.09;2090378;28;20192;-63
2022/03/13 01:11:51;;;;;;;10.05;7.28;;;;;;;1.23;45.55;102694.66;2090110;28;20179;-63
2022/03/13 01:12:52;;;;;;;11.03;7.20;;;;;;;0.58;45.54;102594.84;2089883;28;20215;-63
2022/03/13 01:13:54;;;;;;;14.25;7.53;;;;;;;1.22;46.06;102697.69;2089749;28;20180;-63
2022/03/13 01:14:54;;;;;;;11.43;7.90;;;;;;;1.22;46.53;102687.59;2090295;28;20177;-63
2022/03/13 01:16:00;;;;;;;10.63;7.60;;;;;;;1.21;45.97;102688.72;2089993;28;20216;-63
2022/03/13 01:17:04;;;;;;;10.18;7.65;;;;;;;1.12;45.97;102670.69;2090219;28;20600;-63
2022/03/13 01:18:04;;;;;;;10.52;7.47;;;;;;;1.21;46.35;102683.25;2090165;28;20650;-63
2022/03/13 01:19:06;;;;;;;11.80;8.20;;;;;;;0.30;46.97;102547.09;2090383;28;20548;-63
2022/03/13 01:20:15;;;;;;;13.00;8.10;;;;;;;1.18;46.28;102680.38;2090164;28;20225;-63
2022/03/13 01:21:16;;;;;;;11.07;7.50;;;;;;;1.17;47.31;102687.75;2090420;28;20485;-63
2022/03/13 01:22:17;;;;;;;11.73;8.18;;;;;;;1.19;47.28;102679.25;2089964;28;20184;-63
2022/03/13 01:23:17;;;;;;;10.80;7.77;;;;;;;1.09;47.38;102668.63;2090069;28;20177;-63
2022/03/13 01:24:24;;;;;;;11.93;8.03;;;;;;;0.20;46.30;102547.38;2089724;28;20179;-63
2022/03/13 01:25:24;;;;;;;12.25;8.02;;;;;;;1.15;45.34;102675.53;2090237;28;20248;-63
2022/03/13 01:26:25;;;;;;;10.73;7.43;;;;;;;1.16;45.52;102679.88;2090158;28;20172;-63
2022/03/13 01:27:25;;;;;;;10.00;7.20;;;;;;;1.22;44.53;102675.84;2090280;28;20230;-63
2022/03/13 01:28:26;;;;;;;9.83;7.20;;;;;;;1.25;44.20;102686.97;2089389;28;20180;-63
2022/03/13 01:29:27;;;;;;;12.20;7.20;;;;;;;1.28;44.05;102680.06;2089634;28;20169;-63
2022/03/13 01:30:27;;;;;;;10.50;7.70;;;;;;;1.28;43.59;102680.84;2089520;28;20179;-63
2022/03/13 01:31:29;;;;;;;12.50;7.90;;;;;;;1.23;43.20;102659.16;2080923;28;20173;-63
2022/03/13 01:32:32;;;;;;;10.15;7.15;;;;;;;1.37;43.67;102678.09;2089074;28;20228;-63
2022/03/13 01:33:33;;;;;;;10.07;7.15;;;;;;;1.43;42.72;102676.81;2090090;28;20263;-63
2022/03/13 01:34:36;;;;;;;10.27;7.53;;;;;;;1.45;42.56;102669.91;2089875;28;20172;-63
2022/03/13 01:35:37;;;;;;;9.40;7.03;;;;;;;1.45;42.45;102675.38;2089333;28;20465;-63
2022/03/13 01:36:37;;;;;;;9.60;6.97;;;;;;;1.39;42.39;102676.66;2089610;28;20172;-64
2022/03/13 01:37:40;;;;;;;8.83;6.77;;;;;;;1.43;42.08;102677.63;2090162;28;20230;-63
2022/03/13 01:38:41;;;;;;;9.77;7.07;;;;;;;1.42;42.48;102676.03;2090211;28;20610;-64
2022/03/13 01:39:42;;;;;;;9.77;6.87;;;;;;;1.36;42.44;102680.06;2090153;28;20173;-63
2022/03/13 01:40:42;;;;;;;8.60;6.63;;;;;;;-0.08;42.59;102442.44;2090200;28;20195;-63
2022/03/13 01:41:43;;;;;;;10.10;6.90;;;;;;;1.13;42.16;102625.91;2089732;28;20669;-63
2022/03/13 01:42:44;;;;;;;9.80;6.87;;;;;;;0.87;42.12;102587.66;2089679;28;20200;-63
2022/03/13 01:43:45;;;;;;;8.85;6.68;;;;;;;1.32;42.67;102651.78;2089510;28;20183;-63
2022/03/13 01:44:46;;;;;;;11.90;7.13;;;;;;;1.46;42.49;102677.00;2090069;28;20183;-63
2022/03/13 01:45:46;;;;;;;9.43;6.47;;;;;;;1.47;42.71;102678.59;2090011;28;20654;-63
2022/03/13 01:46:48;;;;;;;10.53;7.20;;;;;;;1.50;43.12;102707.22;2090114;28;20238;-63
2022/03/13 01:47:48;;;;;;;9.00;7.00;;;;;;;1.47;43.17;102678.59;2089927;28;20177;-63
2022/03/13 01:48:59;;;;;;;10.40;7.30;;;;;;;1.49;43.50;102681.81;2090188;28;20184;-63
2022/03/13 01:50:00;;;;;;;8.95;6.82;;;;;;;1.50;42.52;102682.63;2089827;28;20177;-63
2022/03/13 01:51:00;;;;;;;9.00;6.93;;;;;;;1.49;42.61;102679.06;2089929;28;20184;-63
2022/03/13 01:52:01;;;;;;;9.07;6.80;;;;;;;0.43;42.45;102514.22;2089945;28;20168;-63
2022/03/13 01:53:02;;;;;;;9.87;7.50;;;;;;;1.42;42.88;102684.22;2089570;28;20558;-63
2022/03/13 01:54:07;;;;;;;8.90;6.77;;;;;;;1.44;42.59;102675.72;2089422;28;20975;-63
2022/03/13 01:55:08;;;;;;;10.50;6.85;;;;;;;1.19;42.60;102638.28;2090184;28;20179;-63
2022/03/13 01:56:09;;;;;;;11.00;6.63;;;;;;;1.21;42.65;102657.88;2089819;28;20177;-63
2022/03/13 01:57:15;;;;;;;10.33;6.70;;;;;;;1.48;42.66;102674.75;2089849;28;20172;-63
2022/03/13 01:58:16;;;;;;;10.23;6.80;;;;;;;1.47;42.48;102669.59;2089869;28;20184;-63
2022/03/13 01:59:17;;;;;;;10.65;6.63;;;;;;;1.46;42.51;102678.94;2089957;28;20173;-63
2022/03/13 02:00:19;;;;;;;9.77;7.10;;;;;;;1.21;42.71;102631.38;2089841;28;20194;-63
2022/03/13 02:01:22;;;;;;;10.57;6.70;;;;;;;1.45;42.77;102680.84;2089914;28;20597;-63
2022/03/13 02:02:25;;;;;;;10.10;7.05;;;;;;;1.53;42.51;102679.22;2089537;28;20259;-63
2022/03/13 02:03:27;;;;;;;9.38;7.15;;;;;;;1.49;42.66;102679.06;2089985;28;20204;-63
2022/03/13 02:04:30;;;;;;;9.48;6.88;;;;;;;1.51;41.86;102676.03;2089645;28;20173;-63
2022/03/13 02:05:33;;;;;;;10.15;6.80;;;;;;;1.49;42.57;102678.28;2089872;28;20657;-63
2022/03/13 02:06:34;;;;;;;8.32;6.22;;;;;;;1.50;42.89;102680.69;2090070;28;20187;-64
2022/03/13 02:07:35;;;;;;;9.60;6.80;;;;;;;1.54;42.31;102676.19;2089788;28;20195;-63
2022/03/13 02:08:37;;;;;;;9.43;7.00;;;;;;;0.77;42.50;102560.66;2090144;28;20175;-63
2022/03/13 02:09:38;;;;;;;9.88;7.10;;;;;;;1.55;42.58;102674.28;2089982;28;20172;-63
2022/03/13 02:10:38;;;;;;;10.70;7.00;;;;;;;1.47;42.68;102661.41;2089920;28;20195;-63
2022/03/13 02:11:40;;;;;;;18.40;6.77;;;;;;;1.58;42.86;102670.88;2089665;28;20180;-63
2022/03/13 02:12:41;;;;;;;9.13;6.90;;;;;;;1.58;42.43;102674.41;2089421;28;20204;-63
2022/03/13 02:13:43;;;;;;;12.13;7.00;;;;;;;1.60;42.08;102663.19;2089591;28;20176;-64
2022/03/13 02:14:43;;;;;;;11.07;7.18;;;;;;;1.14;42.49;102603.72;2089098;28;20176;-63
2022/03/13 02:15:45;;;;;;;11.70;7.13;;;;;;;1.64;42.50;102670.41;2089033;28;20204;-63
2022/03/13 02:16:45;;;;;;;11.35;7.18;;;;;;;1.58;43.60;102668.13;2089822;28;20649;-63
2022/03/13 02:17:46;;;;;;;8.93;6.43;;;;;;;1.63;44.00;102677.00;2089675;28;20198;-63
2022/03/13 02:18:52;;;;;;;11.57;7.23;;;;;;;1.64;43.17;102669.59;2089863;28;20175;-63
2022/03/13 02:19:54;;;;;;;10.18;6.65;;;;;;;1.65;42.85;102666.53;2089772;28;20168;-63
2022/03/13 02:20:55;;;;;;;9.57;6.72;;;;;;;1.62;42.50;102664.47;2089907;28;20176;-63
2022/03/13 02:21:58;;;;;;;10.33;6.70;;;;;;;1.64;42.44;102667.66;2089483;28;20168;-63
2022/03/13 02:23:00;;;;;;;8.80;6.57;;;;;;;1.67;41.78;102663.47;2089177;28;20180;-63
2022/03/13 02:24:07;;;;;;;7.85;6.20;;;;;;;1.66;42.60;102661.88;2089304;28;20176;-63
2022/03/13 02:25:16;;;;;;;10.15;6.93;;;;;;;1.67;42.60;102672.50;2089880;28;20161;-63
2022/03/13 02:26:20;;;;;;;12.23;7.10;;;;;;;1.67;44.17;102685.34;2089884;28;20214;-63
2022/03/13 02:27:23;;;;;;;12.98;7.20;;;;;;;1.19;42.91;102614.47;2089643;28;20173;-63
2022/03/13 02:28:29;;;;;;;15.65;7.10;;;;;;;1.58;43.52;102693.56;2088937;28;20686;-63
2022/03/13 02:29:31;;;;;;;10.50;6.78;;;;;;;1.55;43.15;102661.41;2089837;28;20242;-63
2022/03/13 02:30:31;;;;;;;9.38;6.85;;;;;;;1.08;42.56;102610.47;2089958;28;20184;-63
2022/03/13 02:31:37;;;;;;;9.23;6.63;;;;;;;1.49;42.24;102662.69;2089508;28;20176;-63
2022/03/13 02:32:37;;;;;;;11.80;6.65;;;;;;;1.41;42.63;102643.56;2089182;28;20200;-63
2022/03/13 02:33:39;;;;;;;19.27;7.90;;;;;;;1.48;43.26;102696.59;2089611;28;20204;-63
2022/03/13 02:34:39;;;;;;;11.65;6.88;;;;;;;1.47;42.23;102673.16;2089525;28;20241;-63
2022/03/13 02:35:40;;;;;;;13.40;6.97;;;;;;;1.37;42.17;102667.19;2089575;28;20176;-63
2022/03/13 02:36:46;;;;;;;8.13;6.30;;;;;;;1.36;42.04;102663.66;2089657;28;20654;-63
2022/03/13 02:37:48;;;;;;;21.48;8.45;;;;;;;1.34;43.45;102665.91;2089576;28;20610;-63
2022/03/13 02:38:48;;;;;;;17.92;8.40;;;;;;;1.31;43.67;102665.75;2089746;28;20279;-63
2022/03/13 02:39:49;;;;;;;12.50;6.40;;;;;;;1.27;43.68;102662.03;2089610;28;20185;-63
2022/03/13 02:40:50;;;;;;;9.40;6.47;;;;;;;0.55;42.97;102551.81;2089775;28;20711;-64
2022/03/13 02:41:50;;;;;;;9.10;6.77;;;;;;;0.07;42.64;102477.44;2089257;28;20598;-63
2022/03/13 02:42:52;;;;;;;10.97;6.87;;;;;;;1.26;42.79;102655.78;2089236;28;20196;-64
2022/03/13 02:43:53;;;;;;;9.02;6.35;;;;;;;1.28;42.22;102663.66;2089057;28;20171;-63
2022/03/13 02:44:54;;;;;;;8.75;6.45;;;;;;;1.31;42.95;102657.53;2089026;28;20190;-63
2022/03/13 02:45:54;;;;;;;10.47;6.53;;;;;;;1.34;42.13;102665.13;2088969;28;20261;-63
2022/03/13 02:47:01;;;;;;;10.67;6.83;;;;;;;1.28;42.92;102661.72;2089655;28;20180;-63
2022/03/13 02:48:03;;;;;;;10.23;6.43;;;;;;;1.38;42.24;102655.94;2089512;28;20183;-63
2022/03/13 02:49:04;;;;;;;8.10;6.40;;;;;;;1.38;42.45;102658.69;2089613;28;20260;-63
2022/03/13 02:50:05;;;;;;;9.43;6.40;;;;;;;1.38;42.49;102664.13;2089565;28;20180;-63
2022/03/13 02:51:05;;;;;;;8.70;6.53;;;;;;;1.41;42.54;102662.69;2089423;28;20271;-63
2022/03/13 02:52:06;;;;;;;9.80;6.73;;;;;;;1.42;42.39;102677.94;2089310;28;20178;-63
2022/03/13 02:53:08;;;;;;;13.33;7.37;;;;;;;1.47;42.64;102667.69;2089109;28;20210;-63
2022/03/13 02:54:09;;;;;;;11.13;7.13;;;;;;;0.50;42.31;102506.38;2089038;28;20270;-63
2022/03/13 02:55:09;;;;;;;8.93;6.37;;;;;;;1.52;41.78;102662.06;2089534;28;20176;-63
2022/03/13 02:56:10;;;;;;;11.27;6.53;;;;;;;1.12;41.79;102588.78;2089512;28;20178;-63
2022/03/13 02:57:13;;;;;;;8.88;6.30;;;;;;;1.51;41.66;102660.44;2088929;28;20191;-63
2022/03/13 02:58:17;;;;;;;7.97;6.32;;;;;;;1.52;41.44;102661.25;2088854;28;20169;-63
2022/03/13 02:59:18;;;;;;;8.52;6.13;;;;;;;1.49;41.63;102659.94;2089199;28;20618;-63
2022/03/13 03:00:20;;;;;;;8.57;6.30;;;;;;;1.52;41.39;102651.13;2089501;28;20267;-63
2022/03/13 03:01:21;;;;;;;9.00;6.55;;;;;;;1.44;41.60;102656.59;2089473;28;20246;-63
2022/03/13 03:02:22;;;;;;;8.73;6.38;;;;;;;1.46;41.75;102651.59;2088919;28;20259;-63
2022/03/13 03:03:23;;;;;;;9.07;6.73;;;;;;;0.53;41.52;102504.94;2089313;28;20176;-63
2022/03/13 03:04:24;;;;;;;8.18;6.13;;;;;;;1.52;42.20;102653.03;2089020;28;20173;-64
2022/03/13 03:05:24;;;;;;;10.47;6.67;;;;;;;1.52;41.25;102650.31;2089540;28;20238;-63
2022/03/13 03:06:28;;;;;;;8.97;6.20;;;;;;;1.30;41.34;102618.50;2089461;28;20264;-63
2022/03/13 03:07:29;;;;;;;10.10;6.47;;;;;;;1.52;41.55;102644.84;2089378;28;20550;-63
2022/03/13 03:08:29;;;;;;;11.73;6.73;;;;;;;1.50;41.87;102647.09;2089501;28;20204;-63
2022/03/13 03:09:32;;;;;;;8.97;6.73;;;;;;;1.49;41.76;102640.03;2089291;28;20669;-64
2022/03/13 03:10:33;;;;;;;10.10;6.72;;;;;;;1.46;41.84;102640.66;2089446;28;20560;-63
2022/03/13 03:11:34;;;;;;;9.68;6.70;;;;;;;1.45;41.64;102641.81;2089206;28;20184;-63
2022/03/13 03:12:34;;;;;;;11.10;7.07;;;;;;;1.34;41.51;102637.78;2088233;28;20204;-63
2022/03/13 03:13:35;;;;;;;10.43;6.93;;;;;;;1.44;41.78;102645.66;2088652;28;20189;-63
2022/03/13 03:14:35;;;;;;;9.07;6.37;;;;;;;-0.08;41.82;102394.22;2089062;28;20176;-63
2022/03/13 03:15:37;;;;;;;11.33;6.53;;;;;;;0.82;42.13;102549.59;2089379;28;20280;-63
2022/03/13 03:16:37;;;;;;;9.88;6.85;;;;;;;1.44;42.08;102642.94;2089301;28;20187;-63
2022/03/13 03:17:38;;;;;;;10.37;7.10;;;;;;;1.21;42.94;102622.34;2089320;28;20183;-63
2022/03/13 03:18:38;;;;;;;9.80;6.70;;;;;;;1.33;43.00;102626.06;2089304;28;20625;-64
2022/03/13 03:19:39;;;;;;;9.17;6.47;;;;;;;1.31;43.51;102622.03;2089556;28;20176;-63
2022/03/13 03:20:40;;;;;;;11.53;7.07;;;;;;;1.34;43.37;102635.84;2089553;28;20612;-63
2022/03/13 03:21:41;;;;;;;10.53;6.70;;;;;;;1.18;43.84;102612.88;2089064;28;20190;-63
2022/03/13 03:22:41;;;;;;;10.60;6.63;;;;;;;1.22;43.89;102622.03;2089027;28;20489;-63
2022/03/13 03:23:42;;;;;;;11.23;7.20;;;;;;;1.17;43.85;102619.47;2088942;28;20630;-63
2022/03/13 03:24:42;;;;;;;9.77;6.90;;;;;;;1.28;43.79;102641.81;2089382;28;20202;-63
2022/03/13 03:25:43;;;;;;;11.30;6.87;;;;;;;1.26;43.41;102633.94;2089135;28;20397;-63
2022/03/13 03:26:44;;;;;;;10.87;7.33;;;;;;;1.27;44.07;102642.91;2089550;28;20231;-63
2022/03/13 03:27:45;;;;;;;11.13;6.55;;;;;;;1.25;43.89;102636.97;2089276;28;20673;-63
2022/03/13 03:28:46;;;;;;;10.80;6.53;;;;;;;0.37;43.55;102498.34;2088581;28;20652;-63
2022/03/13 03:29:46;;;;;;;10.63;6.97;;;;;;;1.21;43.95;102625.91;2088633;28;20180;-63
2022/03/13 03:30:47;;;;;;;11.70;7.10;;;;;;;0.53;44.96;102515.88;2089422;28;20204;-63
2022/03/13 03:31:49;;;;;;;11.63;6.47;;;;;;;1.20;46.36;102637.13;2088970;28;20180;-63
2022/03/13 03:32:52;;;;;;;12.48;6.85;;;;;;;1.13;46.67;102631.38;2088815;28;20204;-63
2022/03/13 03:33:52;;;;;;;10.55;6.85;;;;;;;1.10;47.36;102629.25;2088629;28;20259;-63
2022/03/13 03:34:53;;;;;;;13.63;7.67;;;;;;;1.00;45.80;102613.19;2089408;28;20184;-63
2022/03/13 03:35:54;;;;;;;14.43;6.93;;;;;;;0.26;45.87;102510.69;2089190;28;20241;-63
2022/03/13 03:36:59;;;;;;;10.70;6.73;;;;;;;1.06;45.39;102631.84;2089348;28;20191;-63
2022/03/13 03:38:00;;;;;;;10.85;7.72;;;;;;;1.04;45.36;102616.91;2089294;28;20188;-63
2022/03/13 03:39:01;;;;;;;12.37;7.00;;;;;;;1.08;47.06;102624.13;2089205;28;20187;-63
2022/03/13 03:40:04;;;;;;;13.67;7.57;;;;;;;1.06;47.06;102637.28;2089156;28;20191;-63
2022/03/13 03:41:05;;;;;;;13.50;7.10;;;;;;;1.03;46.31;102618.03;2089358;28;20180;-63
2022/03/13 03:42:06;;;;;;;11.43;7.03;;;;;;;1.01;46.50;102617.53;2089181;28;20211;-63
2022/03/13 03:43:07;;;;;;;11.38;7.45;;;;;;;1.00;45.76;102619.47;2088649;28;20187;-63
2022/03/13 03:44:07;;;;;;;12.50;6.73;;;;;;;1.03;46.18;102615.28;2088863;28;20218;-63
2022/03/13 03:45:09;;;;;;;13.43;6.90;;;;;;;0.28;45.97;102500.25;2089312;28;20255;-63
2022/03/13 03:46:09;;;;;;;13.10;6.72;;;;;;;1.01;45.95;102614.78;2089176;28;20186;-63
2022/03/13 03:47:10;;;;;;;18.70;7.20;;;;;;;0.80;45.58;102591.97;2089235;28;20183;-63
2022/03/13 03:48:10;;;;;;;15.27;8.03;;;;;;;0.92;45.38;102595.69;2089098;28;20772;-63
2022/03/13 03:49:11;;;;;;;21.17;8.03;;;;;;;0.98;45.23;102612.72;2089403;28;20378;-63
2022/03/13 03:50:12;;;;;;;15.37;7.67;;;;;;;0.51;44.59;102537.19;2089080;28;20191;-63
2022/03/13 03:51:13;;;;;;;19.42;7.97;;;;;;;0.96;44.60;102610.31;2089199;28;20468;-63
2022/03/13 03:52:14;;;;;;;8.70;6.90;;;;;;;-0.86;44.25;102331.66;2088869;28;20175;-63
2022/03/13 03:53:14;;;;;;;13.07;7.60;;;;;;;0.89;44.88;102609.97;2088815;28;20208;-63
2022/03/13 03:54:15;;;;;;;11.23;7.47;;;;;;;0.71;45.96;102574.78;2088786;28;20176;-63
2022/03/13 03:55:15;;;;;;;15.53;7.90;;;;;;;0.88;45.13;102613.81;2089324;28;20595;-63
2022/03/13 03:56:16;;;;;;;14.50;7.73;;;;;;;0.70;45.62;102592.28;2089044;28;20262;-63
2022/03/13 03:57:16;;;;;;;11.10;7.30;;;;;;;0.82;45.27;102611.59;2089267;28;20226;-63
2022/03/13 03:58:21;;;;;;;21.00;8.07;;;;;;;0.68;45.24;102589.06;2088618;28;20622;-63
2022/03/13 03:59:23;;;;;;;13.05;8.23;;;;;;;0.82;45.81;102612.38;2088661;28;20176;-63
2022/03/13 04:00:24;;;;;;;16.00;7.43;;;;;;;0.85;45.38;102611.75;2089037;28;20190;-63
2022/03/13 04:01:25;;;;;;;21.53;8.07;;;;;;;0.53;45.42;102556.78;2089037;28;20646;-63
2022/03/13 04:02:26;;;;;;;24.10;8.70;;;;;;;0.84;46.00;102612.06;2088712;28;20180;-63
2022/03/13 04:03:27;;;;;;;19.80;8.75;;;;;;;0.80;46.76;102613.81;2088492;28;20187;-63
2022/03/13 04:04:27;;;;;;;20.03;7.63;;;;;;;0.76;47.12;102613.66;2088228;28;20173;-63
2022/03/13 04:05:28;;;;;;;12.30;7.33;;;;;;;0.65;47.14;102603.34;2089112;28;20186;-63
2022/03/13 04:06:29;;;;;;;14.63;8.17;;;;;;;0.62;46.85;102604.78;2089130;28;20207;-63
2022/03/13 04:07:30;;;;;;;17.23;8.27;;;;;;;0.32;46.69;102577.59;2088501;28;20183;-63
2022/03/13 04:08:31;;;;;;;15.27;8.13;;;;;;;0.47;47.17;102598.97;2088696;28;20184;-63
2022/03/13 04:09:31;;;;;;;12.13;8.03;;;;;;;0.50;46.56;102598.31;2089070;28;20654;-63
2022/03/13 04:10:32;;;;;;;11.40;7.13;;;;;;;0.50;45.72;102601.06;2089474;28;20653;-63
2022/03/13 04:11:34;;;;;;;10.93;7.73;;;;;;;0.51;46.69;102603.47;2088767;28;20233;-63
2022/03/13 04:12:35;;;;;;;15.40;8.20;;;;;;;0.55;46.11;102598.19;2088652;28;20177;-63
2022/03/13 04:13:39;;;;;;;15.97;7.60;;;;;;;0.57;46.34;102598.69;2089023;28;20184;-63
2022/03/13 04:14:40;;;;;;;14.90;7.53;;;;;;;0.54;46.45;102604.75;2089020;28;20180;-63
2022/03/13 04:15:41;;;;;;;16.95;8.15;;;;;;;0.57;46.79;102598.69;2089049;28;20673;-63
2022/03/13 04:16:41;;;;;;;12.73;7.67;;;;;;;0.54;47.01;102591.13;2089100;28;20617;-63
2022/03/13 04:17:42;;;;;;;11.67;7.60;;;;;;;0.55;46.31;102599.00;2089023;28;20172;-63
2022/03/13 04:18:42;;;;;;;14.63;7.70;;;;;;;0.25;46.92;102547.25;2089073;28;20185;-63
2022/03/13 04:19:43;;;;;;;11.10;7.27;;;;;;;0.49;46.45;102583.09;2089044;28;20172;-63
2022/03/13 04:20:44;;;;;;;16.60;8.53;;;;;;;0.51;46.56;102580.84;2089138;28;20180;-63
2022/03/13 04:21:44;;;;;;;14.37;8.10;;;;;;;0.62;46.32;102596.59;2088816;28;20180;-63
2022/03/13 04:22:45;;;;;;;15.50;7.67;;;;;;;0.63;46.08;102592.75;2088798;28;20178;-63
2022/03/13 04:23:45;;;;;;;26.87;9.67;;;;;;;0.65;46.34;102587.78;2088651;28;20183;-63
2022/03/13 04:24:46;;;;;;;12.13;7.77;;;;;;;0.63;46.91;102595.47;2089244;28;20541;-63
2022/03/13 04:25:47;;;;;;;23.03;8.97;;;;;;;0.65;46.40;102590.50;2088934;28;20565;-63
2022/03/13 04:26:48;;;;;;;13.67;7.63;;;;;;;0.65;45.65;102589.69;2089086;28;20181;-63
2022/03/13 04:27:49;;;;;;;14.90;7.43;;;;;;;0.66;44.88;102589.38;2088880;28;20187;-63
2022/03/13 04:28:50;;;;;;;10.70;7.33;;;;;;;0.68;44.78;102587.13;2089217;28;20268;-63
2022/03/13 04:29:51;;;;;;;20.92;7.90;;;;;;;-0.75;46.75;102351.22;2089019;28;20176;-63
2022/03/13 04:30:57;;;;;;;13.47;7.93;;;;;;;0.72;46.00;102590.06;2089060;28;20192;-63
2022/03/13 04:31:57;;;;;;;16.00;8.25;;;;;;;0.74;46.00;102587.78;2088745;28;20169;-63
2022/03/13 04:32:58;;;;;;;15.70;8.43;;;;;;;0.77;46.09;102587.16;2088647;28;20204;-63
2022/03/13 04:33:58;;;;;;;11.07;6.53;;;;;;;0.77;45.39;102590.69;2088459;28;20714;-63
2022/03/13 04:34:59;;;;;;;15.17;7.67;;;;;;;0.80;45.66;102590.06;2089152;28;20282;-63
2022/03/13 04:36:02;;;;;;;12.83;8.17;;;;;;;0.56;45.83;102584.22;2089095;28;20582;-63
2022/03/13 04:37:03;;;;;;;10.68;7.60;;;;;;;0.78;45.01;102584.09;2089087;28;20650;-63
2022/03/13 04:38:04;;;;;;;14.23;8.20;;;;;;;0.77;45.26;102574.31;2089009;28;20201;-63
2022/03/13 04:39:05;;;;;;;12.20;7.50;;;;;;;-0.30;44.71;102409.84;2089073;28;20183;-63
2022/03/13 04:40:06;;;;;;;12.18;7.60;;;;;;;-0.66;45.07;102338.47;2088897;28;20539;-63
2022/03/13 04:41:07;;;;;;;12.57;7.53;;;;;;;0.87;44.67;102582.19;2089271;28;20183;-63
2022/03/13 04:42:08;;;;;;;15.63;8.33;;;;;;;0.92;45.05;102590.22;2088801;28;20936;-63
2022/03/13 04:43:08;;;;;;;12.57;9.00;;;;;;;0.91;44.23;102574.97;2088701;28;20196;-63
2022/03/13 04:44:11;;;;;;;12.77;7.47;;;;;;;0.93;44.40;102575.44;2088503;28;20200;-63
2022/03/13 04:45:12;;;;;;;12.55;7.88;;;;;;;0.99;44.11;102579.63;2089102;28;20209;-63
2022/03/13 04:46:13;;;;;;;12.63;7.97;;;;;;;1.01;44.38;102588.31;2088997;28;20172;-63
2022/03/13 04:47:13;;;;;;;11.17;7.93;;;;;;;1.01;44.18;102588.31;2089078;28;20564;-63